Time;durP1;ratioP1;P1;durP2;ratioP2;P2;SDS_P1;SDS_P2;PMS_P1;PMS_P2;Temp;Humidity;BMP_temperature;BMP_pressure;BME280_temperature;BME280_humidity;BME280_pressure;Samples;Min_cycle;Max_cycle;Signal;HPM_P1;HPM_P2
2024/01/09 00:01:57;;;;;;;49.03;22.75;;;;;;;-1.55;75.51;92986.75;2047806;70;20673;-79
2024/01/09 00:04:24;;;;;;;50.10;23.60;;;;;;;-1.81;75.97;92983.88;2047587;70;20206;-78
2024/01/09 00:06:50;;;;;;;53.65;24.67;;;;;;;-2.04;76.58;92997.25;2047824;70;20529;-79
2024/01/09 00:09:17;;;;;;;52.35;25.38;;;;;;;-2.18;77.99;92990.16;2047847;70;20178;-78
2024/01/09 00:11:42;;;;;;;53.72;24.17;;;;;;;-2.00;77.48;92999.72;2044406;70;20522;-79
2024/01/09 00:14:08;;;;;;;52.13;25.42;;;;;;;-2.13;76.58;92992.84;2047800;70;20594;-78
2024/01/09 00:16:33;;;;;;;51.40;24.92;;;;;;;-2.12;77.55;92988.81;2047967;70;20169;-78
2024/01/09 00:19:01;;;;;;;53.47;25.38;;;;;;;-1.81;77.11;92986.66;2047838;70;20143;-78
2024/01/09 00:21:27;;;;;;;55.28;25.38;;;;;;;-2.15;77.98;92991.88;2047680;70;20158;-78
2024/01/09 00:23:53;;;;;;;56.60;25.73;;;;;;;-1.97;77.24;92996.66;2047909;70;20146;-78
2024/01/09 00:26:21;;;;;;;55.15;25.30;;;;;;;-2.44;77.72;92996.97;2047670;70;20154;-78
2024/01/09 00:28:46;;;;;;;52.72;24.83;;;;;;;-2.06;77.67;92994.28;2047819;70;20147;-78
2024/01/09 00:31:12;;;;;;;51.08;24.92;;;;;;;-2.11;77.16;92990.31;2047380;70;20487;-78
2024/01/09 00:33:38;;;;;;;48.25;24.17;;;;;;;-2.09;77.36;92998.06;2047919;70;20154;-78
2024/01/09 00:36:04;;;;;;;55.05;25.70;;;;;;;-1.63;75.97;92993.41;2047770;70;20170;-79
2024/01/09 00:38:30;;;;;;;50.83;24.17;;;;;;;-1.43;75.28;92987.31;2047790;70;20139;-78
2024/01/09 00:40:55;;;;;;;48.17;23.52;;;;;;;-1.24;74.45;92994.81;2047599;70;20193;-78
2024/01/09 00:43:21;;;;;;;47.05;23.15;;;;;;;-1.41;74.67;92989.56;2047775;70;20296;-78
2024/01/09 00:45:48;;;;;;;50.85;24.77;;;;;;;-1.45;74.71;92994.66;2047625;70;20608;-78
2024/01/09 00:48:15;;;;;;;51.15;24.33;;;;;;;-1.52;74.74;92982.19;2047691;70;20594;-78
2024/01/09 00:50:41;;;;;;;52.05;25.17;;;;;;;-2.03;75.96;92993.22;2047648;70;20162;-79
2024/01/09 00:53:07;;;;;;;49.80;24.52;;;;;;;-1.89;76.63;92986.50;2047858;70;20155;-78
2024/01/09 00:55:33;;;;;;;51.33;24.33;;;;;;;-2.13;77.34;92990.09;2047749;70;20640;-78
2024/01/09 00:57:58;;;;;;;50.15;24.48;;;;;;;-1.93;76.23;92988.06;2047478;70;20491;-78
2024/01/09 01:00:24;;;;;;;53.03;25.08;;;;;;;-2.16;76.92;92987.63;2047741;70;20254;-78
2024/01/09 01:02:50;;;;;;;56.45;27.00;;;;;;;-1.93;77.06;92988.06;2047789;70;20146;-78
2024/01/09 01:05:16;;;;;;;51.30;24.95;;;;;;;-1.88;75.90;92981.72;2047805;70;20173;-78
2024/01/09 01:07:42;;;;;;;57.13;25.67;;;;;;;-2.54;77.75;92987.59;2047014;70;20605;-78
2024/01/09 01:10:11;;;;;;;55.00;25.60;;;;;;;-2.26;77.93;92989.25;2047753;70;20135;-78
2024/01/09 01:12:37;;;;;;;51.47;25.00;;;;;;;-2.00;77.10;92994.19;2047122;70;20162;-78
2024/01/09 01:15:04;;;;;;;52.30;25.38;;;;;;;-1.67;76.20;92981.94;2047264;70;20150;-78
2024/01/09 01:17:31;;;;;;;56.30;24.88;;;;;;;-1.59;75.43;92991.09;2048260;70;20155;-78
2024/01/09 01:19:57;;;;;;;50.72;24.13;;;;;;;-1.46;75.49;92990.41;2048038;70;20171;-78
2024/01/09 01:22:24;;;;;;;54.92;25.80;;;;;;;-1.90;75.97;93000.81;2048379;70;20531;-78
2024/01/09 01:24:50;;;;;;;54.47;25.15;;;;;;;-2.00;76.54;93008.00;2048199;70;20147;-78
2024/01/09 01:27:16;;;;;;;54.25;25.77;;;;;;;-1.68;76.15;93006.03;2047371;70;20167;-78
2024/01/09 01:29:41;;;;;;;54.45;25.83;;;;;;;-1.59;75.64;93002.88;2048281;70;20155;-78
2024/01/09 01:32:10;;;;;;;51.67;24.52;;;;;;;-1.67;75.58;92995.72;2048125;70;20153;-77
2024/01/09 01:34:36;;;;;;;57.50;25.75;;;;;;;-1.84;76.58;93004.97;2048161;70;20233;-78
2024/01/09 01:37:02;;;;;;;53.70;25.27;;;;;;;-1.71;75.88;93001.56;2048397;70;20158;-78
2024/01/09 01:39:28;;;;;;;54.40;26.48;;;;;;;-1.94;76.53;92997.63;2048219;70;20167;-78
2024/01/09 01:41:55;;;;;;;52.10;25.58;;;;;;;-1.72;75.86;92994.53;2047558;70;20154;-78
2024/01/09 01:44:23;;;;;;;52.03;24.88;;;;;;;-1.64;75.35;92992.66;2048208;70;20166;-77
2024/01/09 01:46:50;;;;;;;55.00;24.85;;;;;;;-1.87;76.22;92989.50;2048232;70;20139;-78
2024/01/09 01:49:19;;;;;;;51.45;25.67;;;;;;;-1.66;75.47;92991.69;2048089;70;20173;-78
2024/01/09 01:51:47;;;;;;;50.05;24.30;;;;;;;-1.81;75.94;92994.94;2048155;70;20171;-77
2024/01/09 01:54:13;;;;;;;56.47;25.27;;;;;;;-1.87;76.12;92997.03;2047836;70;20139;-78
2024/01/09 01:56:41;;;;;;;51.70;24.48;;;;;;;-1.93;76.17;92993.59;2047974;70;20185;-78
2024/01/09 01:59:09;;;;;;;55.97;25.50;;;;;;;-1.96;76.38;92994.66;2047969;70;20147;-78
2024/01/09 02:01:36;;;;;;;54.85;25.75;;;;;;;-1.88;76.23;92999.03;2047611;70;20242;-78
2024/01/09 02:04:03;;;;;;;53.67;25.42;;;;;;;-1.97;76.42;92996.66;2048049;70;20200;-78
2024/01/09 02:06:30;;;;;;;53.55;25.58;;;;;;;-2.18;76.85;93001.19;2047963;70;20213;-77
2024/01/09 02:08:56;;;;;;;57.38;25.48;;;;;;;-1.74;75.80;92988.81;2048027;70;20633;-78
2024/01/09 02:11:21;;;;;;;52.45;24.92;;;;;;;-1.79;75.96;93000.66;2047968;70;20150;-78
2024/01/09 02:13:47;;;;;;;55.42;26.38;;;;;;;-1.62;75.23;93000.41;2047920;70;20158;-79
2024/01/09 02:16:13;;;;;;;54.08;25.17;;;;;;;-1.87;75.66;92997.78;2048102;70;20301;-78
2024/01/09 02:18:39;;;;;;;57.20;26.23;;;;;;;-1.61;74.93;92993.63;2048162;70;20233;-78
2024/01/09 02:21:04;;;;;;;55.25;26.67;;;;;;;-2.06;76.01;92995.03;2048066;70;20158;-79
2024/01/09 02:23:30;;;;;;;53.53;25.23;;;;;;;-1.78;75.87;92990.38;2047985;70;20174;-78
2024/01/09 02:25:57;;;;;;;53.25;25.88;;;;;;;-1.92;75.92;92987.56;2048022;70;20601;-78
2024/01/09 02:28:22;;;;;;;56.88;26.95;;;;;;;-1.86;75.85;92985.47;2048158;70;20226;-78
2024/01/09 02:30:53;;;;;;;53.88;25.95;;;;;;;-2.07;76.47;92993.50;2048076;70;20150;-78
2024/01/09 02:33:19;;;;;;;55.88;25.80;;;;;;;-2.05;77.05;92981.97;2047592;70;20150;-78
2024/01/09 02:35:44;;;;;;;53.90;25.50;;;;;;;-2.03;77.15;92984.94;2048175;70;20174;-78
2024/01/09 02:38:10;;;;;;;56.60;25.77;;;;;;;-1.82;76.41;92982.41;2048115;70;20174;-78
2024/01/09 02:40:36;;;;;;;60.47;25.88;;;;;;;-1.46;74.93;92977.34;2048143;70;20226;-77
2024/01/09 02:43:02;;;;;;;55.40;25.80;;;;;;;-1.33;74.57;92993.19;2047895;70;20145;-77
2024/01/09 02:45:27;;;;;;;56.13;26.08;;;;;;;-1.36;73.91;92983.22;2047954;70;20683;-78
2024/01/09 02:47:53;;;;;;;55.22;26.48;;;;;;;-1.24;73.89;92983.75;2048049;70;20146;-77
2024/01/09 02:50:20;;;;;;;51.72;25.38;;;;;;;-2.01;76.38;92985.19;2048066;70;20154;-78
2024/01/09 02:52:46;;;;;;;53.60;25.50;;;;;;;-1.93;76.20;92986.03;2048015;70;20221;-77
2024/01/09 02:55:12;;;;;;;52.50;25.30;;;;;;;-2.02;77.06;92996.72;2047433;70;20189;-77
2024/01/09 02:57:40;;;;;;;58.10;26.40;;;;;;;-2.22;77.82;92992.47;2047684;70;20572;-77
2024/01/09 03:00:08;;;;;;;54.40;25.10;;;;;;;-2.03;76.78;92987.69;2047959;70;20178;-77
2024/01/09 03:02:35;;;;;;;53.15;25.20;;;;;;;-2.22;77.39;92995.97;2048350;70;20230;-77
2024/01/09 03:05:01;;;;;;;52.47;25.02;;;;;;;-2.18;77.69;92998.44;2048275;70;20170;-78
2024/01/09 03:07:27;;;;;;;56.97;27.02;;;;;;;-1.85;76.22;92986.94;2047568;70;20575;-78
2024/01/09 03:09:53;;;;;;;51.00;25.00;;;;;;;-2.08;77.34;92988.53;2047557;70;20617;-78
2024/01/09 03:12:18;;;;;;;52.40;25.02;;;;;;;-1.75;76.68;92981.03;2048010;70;20151;-78
2024/01/09 03:14:44;;;;;;;54.67;25.77;;;;;;;-2.04;77.00;92994.50;2050510;70;20158;-78
2024/01/09 03:17:10;;;;;;;58.42;26.15;;;;;;;-2.02;77.07;92980.16;2048090;70;20154;-76
2024/01/09 03:19:36;;;;;;;53.78;25.75;;;;;;;-1.65;76.23;92985.66;2047665;70;20154;-77
2024/01/09 03:22:02;;;;;;;53.58;25.85;;;;;;;-1.99;76.43;92993.66;2048294;70;20226;-77
2024/01/09 03:24:27;;;;;;;50.38;24.88;;;;;;;-2.00;76.50;92986.66;2047725;70;20130;-76
2024/01/09 03:26:53;;;;;;;52.40;25.92;;;;;;;-1.81;76.57;92984.63;2048059;70;20147;-77
2024/01/09 03:29:19;;;;;;;54.55;25.20;;;;;;;-2.06;76.23;92986.75;2047838;70;20143;-76
2024/01/09 03:31:45;;;;;;;55.65;25.00;;;;;;;-1.52;75.26;92978.69;2047481;70;20714;-76
2024/01/09 03:34:11;;;;;;;53.42;25.02;;;;;;;-1.43;74.50;92984.56;2044966;70;20150;-77
2024/01/09 03:36:38;;;;;;;51.65;25.13;;;;;;;-1.48;74.27;92987.41;2044926;70;20218;-76
2024/01/09 03:39:04;;;;;;;52.38;24.38;;;;;;;-1.71;75.32;92989.75;2044759;70;20155;-77
2024/01/09 03:41:31;;;;;;;53.55;24.52;;;;;;;-1.46;74.77;92990.41;2044753;70;20592;-77
2024/01/09 03:43:57;;;;;;;53.65;24.42;;;;;;;-1.78;74.86;92982.84;2044850;70;20154;-77
2024/01/09 03:46:24;;;;;;;47.95;23.80;;;;;;;-1.78;74.95;92985.59;2044831;70;20523;-77
2024/01/09 03:48:50;;;;;;;50.33;24.40;;;;;;;-1.56;74.59;92990.81;2044757;70;20526;-77
2024/01/09 03:51:15;;;;;;;52.17;25.05;;;;;;;-1.42;74.04;92994.34;2044711;70;20155;-77
2024/01/09 03:53:41;;;;;;;59.88;26.52;;;;;;;-1.30;73.69;92992.16;2044688;70;20158;-77
2024/01/09 03:56:07;;;;;;;52.60;25.02;;;;;;;-1.25;73.66;92998.84;2044619;70;20647;-77
2024/01/09 03:58:32;;;;;;;50.35;24.20;;;;;;;-1.20;73.65;93000.78;2044653;70;20166;-76
2024/01/09 04:00:58;;;;;;;50.17;24.27;;;;;;;-1.32;73.44;92997.47;2044328;70;20171;-77
2024/01/09 04:03:24;;;;;;;53.83;25.10;;;;;;;-1.71;74.61;92993.28;2044754;70;20136;-77
2024/01/09 04:05:49;;;;;;;49.30;25.25;;;;;;;-1.64;74.85;92998.19;2044824;70;20225;-77
2024/01/09 04:08:15;;;;;;;51.45;24.05;;;;;;;-2.15;76.29;93003.66;2044750;70;20150;-77
2024/01/09 04:10:42;;;;;;;50.33;25.05;;;;;;;-2.11;76.55;93004.13;2044185;70;20155;-77
2024/01/09 04:13:07;;;;;;;49.25;23.63;;;;;;;-2.26;77.37;92997.53;2044667;70;20198;-77
2024/01/09 04:15:34;;;;;;;50.60;24.33;;;;;;;-1.86;75.88;92995.75;2044781;70;20790;-77
2024/01/09 04:18:01;;;;;;;54.45;24.45;;;;;;;-1.90;76.13;92995.31;2044718;70;20142;-77
2024/01/09 04:20:27;;;;;;;51.13;24.48;;;;;;;-1.66;75.43;93002.75;2044789;70;20210;-77
2024/01/09 04:22:52;;;;;;;51.72;24.38;;;;;;;-1.74;74.83;92999.84;2044719;70;20567;-77
2024/01/09 04:25:18;;;;;;;50.53;23.20;;;;;;;-1.81;74.93;93001.19;2044730;70;20234;-77
2024/01/09 04:27:44;;;;;;;51.67;24.17;;;;;;;-1.93;75.17;92991.56;2044703;70;20159;-77
2024/01/09 04:30:10;;;;;;;52.25;24.30;;;;;;;-2.00;75.13;93003.22;2044695;70;20143;-77
2024/01/09 04:32:36;;;;;;;51.50;23.67;;;;;;;-1.96;75.12;93000.16;2044664;70;20192;-77
2024/01/09 04:35:02;;;;;;;49.25;23.67;;;;;;;-2.17;76.11;93002.69;2044691;70;20298;-77
2024/01/09 04:37:27;;;;;;;50.40;23.75;;;;;;;-1.75;75.21;93001.09;2044115;70;20595;-77
2024/01/09 04:39:53;;;;;;;48.92;23.50;;;;;;;-1.69;74.71;93003.81;2044631;70;20135;-77
2024/01/09 04:42:19;;;;;;;49.70;23.80;;;;;;;-1.61;73.72;93008.16;2044693;70;20155;-77
2024/01/09 04:44:44;;;;;;;46.80;22.92;;;;;;;-1.67;73.89;93004.75;2043950;70;20697;-77
2024/01/09 04:47:15;;;;;;;52.10;24.58;;;;;;;-1.69;73.90;93009.31;2044644;70;20148;-77
2024/01/09 04:49:44;;;;;;;49.15;23.15;;;;;;;-2.09;74.50;93009.09;2044996;70;20243;-77
2024/01/09 04:52:10;;;;;;;47.80;23.45;;;;;;;-2.01;75.27;93006.50;2045193;70;20183;-77
2024/01/09 04:54:36;;;;;;;56.03;25.30;;;;;;;-1.75;74.62;93003.88;2045147;70;20139;-77
2024/01/09 04:57:02;;;;;;;49.00;23.98;;;;;;;-2.02;74.39;93002.97;2047142;70;20206;-77
2024/01/09 04:59:28;;;;;;;50.05;23.85;;;;;;;-1.72;73.85;92997.31;2045061;70;20241;-77
2024/01/09 05:01:54;;;;;;;48.42;23.05;;;;;;;-2.43;76.56;92994.97;2044785;70;20151;-77
2024/01/09 05:04:20;;;;;;;45.95;23.35;;;;;;;-2.19;75.73;93005.22;2045115;70;20142;-77
2024/01/09 05:06:45;;;;;;;50.15;23.42;;;;;;;-1.93;75.42;92993.59;2045099;70;20153;-77
2024/01/09 05:09:11;;;;;;;48.65;23.75;;;;;;;-1.77;75.09;92998.13;2045181;70;20515;-77
2024/01/09 05:11:37;;;;;;;51.15;23.30;;;;;;;-1.58;74.29;92995.34;2045037;70;20611;-77
2024/01/09 05:14:03;;;;;;;57.58;24.70;;;;;;;-1.92;74.53;93008.91;2045111;70;20172;-77
2024/01/09 05:16:29;;;;;;;50.05;23.40;;;;;;;-2.36;76.10;93002.66;2044506;70;20143;-77
2024/01/09 05:18:54;;;;;;;54.38;24.45;;;;;;;-2.36;76.26;93010.94;2045111;70;20154;-77
2024/01/09 05:21:21;;;;;;;52.80;23.73;;;;;;;-2.46;77.37;93012.56;2045008;70;20150;-77
2024/01/09 05:23:47;;;;;;;49.67;23.60;;;;;;;-2.40;77.37;93011.22;2045268;70;20147;-77
2024/01/09 05:26:13;;;;;;;50.08;23.77;;;;;;;-1.95;75.50;93009.94;2044306;70;20150;-77
2024/01/09 05:28:38;;;;;;;49.22;23.25;;;;;;;-2.10;76.39;93016.63;2045122;70;20151;-78
2024/01/09 05:31:04;;;;;;;50.00;25.00;;;;;;;-1.91;75.77;93005.59;2046468;70;20199;-77
2024/01/09 05:33:31;;;;;;;55.40;25.05;;;;;;;-1.95;75.00;93007.16;2047570;70;20147;-77
2024/01/09 05:35:57;;;;;;;50.55;23.95;;;;;;;-2.58;76.87;93011.94;2047676;70;20275;-77
2024/01/09 05:38:23;;;;;;;52.55;24.92;;;;;;;-2.55;77.64;93016.44;2047463;70;20159;-77
2024/01/09 05:40:51;;;;;;;51.50;25.35;;;;;;;-2.32;77.47;93011.41;2047122;70;20143;-77
2024/01/09 05:43:17;;;;;;;54.03;25.17;;;;;;;-1.81;75.64;93009.47;2047624;70;20179;-78
2024/01/09 05:45:42;;;;;;;57.53;25.42;;;;;;;-2.06;75.96;93011.56;2046031;70;20508;-77
2024/01/09 05:48:08;;;;;;;50.92;24.50;;;;;;;-1.89;74.96;93008.56;2045641;70;20620;-78
2024/01/09 05:50:34;;;;;;;49.80;24.13;;;;;;;-1.94;75.57;93016.94;2044828;70;20209;-77
2024/01/09 05:53:01;;;;;;;51.45;24.40;;;;;;;-2.46;75.70;93016.06;2045305;70;20159;-78
2024/01/09 05:55:27;;;;;;;53.05;24.92;;;;;;;-2.57;77.16;93014.19;2047444;70;20147;-78
2024/01/09 05:57:52;;;;;;;48.97;23.95;;;;;;;-1.97;75.71;93021.50;2045013;70;20166;-77
2024/01/09 06:00:18;;;;;;;54.72;24.70;;;;;;;-2.32;76.37;93012.13;2045009;70;20314;-77
2024/01/09 06:02:44;;;;;;;53.03;24.27;;;;;;;-2.34;76.32;93017.44;2045017;70;20302;-77
2024/01/09 06:05:10;;;;;;;49.00;23.65;;;;;;;-2.18;75.88;93018.50;2044825;70;20152;-76
2024/01/09 06:07:36;;;;;;;56.53;24.83;;;;;;;-2.13;75.81;93016.94;2044449;70;20619;-77
2024/01/09 06:10:03;;;;;;;56.00;25.45;;;;;;;-2.25;75.50;93018.31;2044981;70;20154;-77
2024/01/09 06:12:29;;;;;;;53.78;24.88;;;;;;;-2.18;75.33;93026.03;2044921;70;20171;-77
2024/01/09 06:14:55;;;;;;;54.15;24.50;;;;;;;-2.23;75.56;93021.31;2044975;70;20204;-78
2024/01/09 06:17:23;;;;;;;55.22;24.48;;;;;;;-2.37;75.93;93021.22;2045140;70;20154;-77
2024/01/09 06:19:50;;;;;;;54.42;25.17;;;;;;;-2.27;75.87;93020.88;2045043;70;20147;-77
2024/01/09 06:22:16;;;;;;;58.10;26.17;;;;;;;-2.51;76.02;93027.91;2045061;70;20151;-78
2024/01/09 06:24:43;;;;;;;57.85;26.05;;;;;;;-2.48;76.48;93023.34;2045064;70;20619;-78
2024/01/09 06:27:09;;;;;;;58.33;26.48;;;;;;;-2.17;75.80;93028.25;2044804;70;20599;-77
2024/01/09 06:29:35;;;;;;;62.40;28.05;;;;;;;-2.24;75.44;93025.34;2046875;70;20199;-77
2024/01/09 06:32:03;;;;;;;60.58;26.77;;;;;;;-2.38;75.48;93025.25;2048308;70;20225;-78
2024/01/09 06:34:29;;;;;;;53.55;24.95;;;;;;;-2.44;76.18;93027.31;2048238;70;20514;-78
2024/01/09 06:36:55;;;;;;;56.75;26.83;;;;;;;-2.20;75.20;93028.53;2047571;70;20170;-78
2024/01/09 06:39:21;;;;;;;51.35;25.58;;;;;;;-2.28;75.34;93038.69;2047843;70;20221;-78
2024/01/09 06:41:46;;;;;;;56.13;25.98;;;;;;;-2.41;75.82;93042.84;2047456;70;20147;-78
2024/01/09 06:44:12;;;;;;;53.33;25.55;;;;;;;-2.40;75.92;93044.31;2048074;70;20649;-79
2024/01/09 06:46:39;;;;;;;56.90;25.58;;;;;;;-2.38;75.76;93043.81;2048248;70;20174;-78
2024/01/09 06:49:04;;;;;;;52.80;25.40;;;;;;;-2.11;74.92;93059.28;2048328;70;20218;-78
2024/01/09 06:51:31;;;;;;;56.03;25.65;;;;;;;-2.35;75.23;93060.06;2045976;70;20222;-77
2024/01/09 06:53:57;;;;;;;60.25;27.08;;;;;;;-2.44;75.97;93060.41;2047615;70;20149;-78
2024/01/09 06:56:23;;;;;;;57.67;26.02;;;;;;;-2.42;76.56;93057.16;2048092;70;20147;-78
2024/01/09 06:58:48;;;;;;;50.95;24.55;;;;;;;-2.65;76.11;93062.88;2047454;70;20590;-78
2024/01/09 07:01:14;;;;;;;54.95;26.50;;;;;;;-2.41;76.72;93064.16;2048102;70;20610;-78
2024/01/09 07:03:39;;;;;;;55.20;26.25;;;;;;;-2.02;75.09;93065.69;2047901;70;20194;-78
2024/01/09 07:06:05;;;;;;;57.45;26.25;;;;;;;-1.78;74.50;93068.41;2048186;70;20158;-78
2024/01/09 07:08:31;;;;;;;58.72;26.88;;;;;;;-1.88;74.24;93073.56;2048138;70;20154;-78
2024/01/09 07:10:57;;;;;;;57.72;26.15;;;;;;;-2.18;74.95;93072.91;2048071;70;20143;-75
2024/01/09 07:13:23;;;;;;;55.33;26.25;;;;;;;-2.15;74.64;93069.88;2047912;70;20148;-76
2024/01/09 07:15:49;;;;;;;61.38;27.40;;;;;;;-1.98;74.66;93069.66;2048126;70;20139;-76
2024/01/09 07:18:15;;;;;;;52.60;25.92;;;;;;;-1.93;74.36;93077.13;2047621;70;20230;-77
2024/01/09 07:20:42;;;;;;;64.38;25.98;;;;;;;-1.70;74.25;93076.81;2048122;70;20139;-76
2024/01/09 07:23:08;;;;;;;60.30;26.55;;;;;;;-1.69;73.90;93075.56;2048069;70;20159;-76
2024/01/09 07:25:34;;;;;;;60.03;27.20;;;;;;;-1.68;74.06;93088.84;2048258;70;20149;-76
2024/01/09 07:27:59;;;;;;;54.97;26.75;;;;;;;-1.93;75.36;93084.66;2047923;70;20172;-77
2024/01/09 07:30:25;;;;;;;59.72;27.63;;;;;;;-2.12;75.50;93093.63;2048180;70;20174;-76
2024/01/09 07:32:53;;;;;;;59.05;26.80;;;;;;;-1.87;75.59;93086.09;2048123;70;20593;-77
2024/01/09 07:35:21;;;;;;;61.38;28.30;;;;;;;-1.65;75.18;93090.56;2048142;70;20134;-76
2024/01/09 07:37:48;;;;;;;62.05;29.05;;;;;;;-1.54;74.79;93095.94;2047325;70;20139;-76
2024/01/09 07:40:13;;;;;;;59.45;27.20;;;;;;;-1.54;74.24;93092.44;2047708;70;20226;-77
2024/01/09 07:42:39;;;;;;;62.03;28.15;;;;;;;-1.51;74.43;93099.69;2048059;70;20212;-77
2024/01/09 07:45:05;;;;;;;56.63;26.77;;;;;;;-1.44;73.97;93103.84;2048209;70;20168;-77
2024/01/09 07:47:31;;;;;;;58.83;27.27;;;;;;;-1.40;74.36;93099.50;2047601;70;20139;-77
2024/01/09 07:49:57;;;;;;;59.03;26.70;;;;;;;-1.30;74.05;93097.09;2048175;70;20154;-77
2024/01/09 07:52:23;;;;;;;58.03;26.25;;;;;;;-1.33;73.60;93107.22;2048078;70;20146;-77
2024/01/09 07:54:49;;;;;;;60.05;27.67;;;;;;;-1.37;73.83;93095.72;2048152;70;20234;-78
2024/01/09 07:57:15;;;;;;;54.03;25.92;;;;;;;-1.31;73.59;93110.19;2047825;70;20169;-77
2024/01/09 07:59:42;;;;;;;55.72;25.73;;;;;;;-1.27;73.21;93115.41;2048190;70;20154;-77
2024/01/09 08:02:07;;;;;;;54.20;26.27;;;;;;;-1.25;73.54;93110.09;2048120;70;20525;-77
2024/01/09 08:04:33;;;;;;;60.08;28.42;;;;;;;-1.53;73.21;93110.47;2047039;70;20861;-78
2024/01/09 08:07:00;;;;;;;82.70;33.67;;;;;;;-1.51;73.57;93116.25;2046912;70;20218;-78
2024/01/09 08:09:26;;;;;;;65.85;29.10;;;;;;;-1.56;73.79;93108.75;2047313;70;20266;-78
2024/01/09 08:11:52;;;;;;;73.95;31.02;;;;;;;-1.30;73.21;93100.63;2047587;70;20253;-78
2024/01/09 08:14:18;;;;;;;82.85;33.75;;;;;;;-1.19;73.23;93112.78;2047499;70;20196;-77
2024/01/09 08:16:44;;;;;;;79.72;32.72;;;;;;;-1.11;72.93;93102.59;2047514;70;20575;-78
2024/01/09 08:19:10;;;;;;;66.53;29.60;;;;;;;-1.31;72.83;93110.19;2047880;70;20143;-77
2024/01/09 08:21:36;;;;;;;74.78;32.13;;;;;;;-1.17;73.32;93113.00;2048136;70;20168;-77
2024/01/09 08:24:03;;;;;;;67.40;30.65;;;;;;;-1.00;72.47;93110.75;2047964;70;20229;-77
2024/01/09 08:26:29;;;;;;;64.78;29.83;;;;;;;-1.31;73.36;93120.47;2047926;70;20153;-77
2024/01/09 08:28:55;;;;;;;59.20;27.95;;;;;;;-1.10;73.02;93117.91;2048128;70;20249;-77
2024/01/09 08:31:21;;;;;;;56.72;26.65;;;;;;;-1.19;73.95;93121.81;2048028;70;20511;-77
2024/01/09 08:33:47;;;;;;;55.38;26.90;;;;;;;-1.17;73.38;93129.59;2047544;70;20167;-78
2024/01/09 08:36:14;;;;;;;66.47;28.60;;;;;;;-0.97;73.03;93122.75;2047975;70;20670;-77
2024/01/09 08:38:39;;;;;;;63.55;28.95;;;;;;;-0.93;73.18;93117.66;2047997;70;20209;-78
2024/01/09 08:41:05;;;;;;;70.18;31.45;;;;;;;-0.81;72.86;93122.50;2047876;70;20182;-78
2024/01/09 08:43:31;;;;;;;70.82;31.48;;;;;;;-0.85;72.45;93119.28;2048047;70;20154;-81
2024/01/09 08:45:56;;;;;;;68.15;31.40;;;;;;;-1.10;72.58;93107.63;2048158;70;20157;-77
2024/01/09 08:48:22;;;;;;;57.55;28.17;;;;;;;-1.13;72.69;93116.97;2047894;70;20138;-78
2024/01/09 08:50:48;;;;;;;56.58;26.50;;;;;;;-1.46;72.87;93122.97;2048056;70;20146;-79
2024/01/09 08:53:14;;;;;;;55.13;26.10;;;;;;;-0.95;72.77;93120.97;2047956;70;20234;-79
2024/01/09 08:55:43;;;;;;;55.38;25.42;;;;;;;-0.84;72.72;93117.25;2047980;70;20166;-80
2024/01/09 08:58:08;;;;;;;56.30;27.08;;;;;;;-0.73;72.19;93125.41;2047704;70;20614;-80
2024/01/09 09:00:34;;;;;;;55.72;26.63;;;;;;;-0.72;72.07;93123.38;2048070;70;20534;-78
2024/01/09 09:03:00;;;;;;;55.35;26.20;;;;;;;-0.56;71.88;93133.41;2047440;70;20607;-77
2024/01/09 09:05:26;;;;;;;59.75;28.67;;;;;;;-0.47;71.74;93124.69;2047934;70;20155;-79
2024/01/09 09:07:52;;;;;;;60.80;27.15;;;;;;;-0.30;71.52;93132.72;2047374;70;20139;-80
2024/01/09 09:10:17;;;;;;;57.50;27.30;;;;;;;-0.26;70.98;93136.66;2047894;70;20151;-78
2024/01/09 09:12:43;;;;;;;61.70;27.73;;;;;;;-0.22;71.03;93136.34;2047767;70;20602;-79
2024/01/09 09:15:09;;;;;;;56.53;27.80;;;;;;;-0.25;70.56;93142.94;2047915;70;20149;-80
2024/01/09 09:17:35;;;;;;;62.70;29.30;;;;;;;-0.29;70.71;93137.72;2047854;70;20135;-79
2024/01/09 09:20:01;;;;;;;64.55;30.17;;;;;;;-0.14;70.92;93139.97;2047841;70;20523;-79
2024/01/09 09:22:28;;;;;;;58.40;29.77;;;;;;;-0.07;70.75;93136.56;2047844;70;20139;-78
2024/01/09 09:24:55;;;;;;;65.00;30.70;;;;;;;0.06;70.81;93137.88;2047270;70;20163;-77
2024/01/09 09:27:21;;;;;;;64.85;31.30;;;;;;;0.14;70.71;93147.03;2047276;70;20659;-78
2024/01/09 09:29:47;;;;;;;60.00;27.17;;;;;;;-0.05;69.52;93145.06;2047350;70;20146;-79
2024/01/09 09:32:13;;;;;;;49.30;24.20;;;;;;;-0.01;69.34;93142.75;2047926;70;20525;-82
2024/01/09 09:34:41;;;;;;;49.55;24.17;;;;;;;0.21;69.53;93147.13;2047346;70;20178;-80
2024/01/09 09:37:08;;;;;;;51.88;24.65;;;;;;;0.20;69.52;93142.84;2048354;70;20167;-81
2024/01/09 09:39:34;;;;;;;49.25;24.15;;;;;;;0.28;68.96;93133.94;2048098;70;20145;-79
2024/01/09 09:42:00;;;;;;;51.05;24.70;;;;;;;0.28;68.37;93136.69;2048719;70;20153;-79
2024/01/09 09:44:26;;;;;;;49.72;24.45;;;;;;;0.01;68.14;93136.69;2048463;70;20187;-80
2024/01/09 09:46:53;;;;;;;51.70;24.40;;;;;;;-0.39;68.65;93135.91;2048351;70;20161;-80
2024/01/09 09:49:22;;;;;;;48.45;23.83;;;;;;;-0.30;69.29;93132.72;2048353;70;20158;-80
2024/01/09 09:51:53;;;;;;;52.05;25.00;;;;;;;0.09;69.03;93128.47;2048319;70;20155;-79
2024/01/09 09:54:19;;;;;;;50.28;24.90;;;;;;;0.25;68.54;93127.41;2048454;70;20157;-79
2024/01/09 09:56:45;;;;;;;48.38;23.83;;;;;;;0.32;68.92;93126.00;2048174;70;20170;-80
2024/01/09 09:59:11;;;;;;;48.90;24.27;;;;;;;0.28;68.00;93126.34;2047644;70;20155;-79
2024/01/09 10:01:42;;;;;;;48.22;23.45;;;;;;;0.29;68.72;93127.84;2047747;70;20142;-79
2024/01/09 10:04:30;;;;;;;46.95;22.85;;;;;;;0.08;67.99;93121.44;2048359;70;20131;-80
2024/01/09 10:06:58;;;;;;;50.10;25.17;;;;;;;0.28;67.90;93120.81;2048364;70;20557;-80
2024/01/09 10:09:31;;;;;;;54.40;26.08;;;;;;;-0.07;67.49;93116.44;2048294;70;20146;-80
2024/01/09 10:11:57;;;;;;;55.20;26.98;;;;;;;-0.33;66.88;93108.88;2048259;70;20154;-80
2024/01/09 10:14:22;;;;;;;59.40;28.65;;;;;;;0.05;67.59;93114.97;2048359;70;20146;-80
2024/01/09 10:16:51;;;;;;;54.80;26.35;;;;;;;0.40;67.03;93118.56;2048233;70;20495;-80
2024/01/09 10:19:17;;;;;;;52.33;25.60;;;;;;;0.63;66.79;93108.50;2048255;70;20603;-81
2024/01/09 10:21:43;;;;;;;53.58;24.90;;;;;;;0.71;66.63;93111.34;2048231;70;20143;-81
2024/01/09 10:24:08;;;;;;;49.13;24.42;;;;;;;0.82;66.43;93096.50;2047776;70;20543;-80
2024/01/09 10:26:34;;;;;;;51.47;24.20;;;;;;;0.92;65.38;93108.66;2048374;70;20499;-81
2024/01/09 10:29:00;;;;;;;48.53;23.92;;;;;;;1.04;65.78;93101.53;2047682;70;20603;-80
2024/01/09 10:31:26;;;;;;;48.83;23.95;;;;;;;1.18;65.41;93107.78;2048363;70;20170;-81
2024/01/09 10:33:54;;;;;;;48.65;24.13;;;;;;;1.25;65.11;93102.31;2047680;70;20522;-80
2024/01/09 10:36:19;;;;;;;48.13;23.88;;;;;;;1.27;64.27;93096.97;2048243;70;20546;-81
2024/01/09 10:38:46;;;;;;;51.50;24.65;;;;;;;1.51;64.26;93098.66;2048213;70;20174;-80
2024/01/09 10:41:21;;;;;;;47.08;23.83;;;;;;;1.57;64.02;93097.78;2048136;70;20143;-80
2024/01/09 10:43:49;;;;;;;46.55;23.75;;;;;;;1.53;63.02;93093.31;2048236;70;20139;-80
2024/01/09 10:46:15;;;;;;;47.35;23.50;;;;;;;1.39;61.76;93093.94;2048211;70;20182;-80
2024/01/09 10:48:42;;;;;;;45.00;24.10;;;;;;;0.85;63.62;93096.19;2048310;70;20153;-80
2024/01/09 10:51:10;;;;;;;48.10;23.50;;;;;;;0.84;63.19;93093.94;2048251;70;20130;-81
2024/01/09 10:53:38;;;;;;;53.15;25.85;;;;;;;0.87;63.23;93096.41;2048233;70;20216;-81
2024/01/09 10:56:08;;;;;;;58.30;28.15;;;;;;;1.24;63.42;93092.50;2048134;70;20258;-80
2024/01/09 10:58:35;;;;;;;71.55;32.63;;;;;;;2.21;63.76;93094.31;2048068;70;20522;-81
2024/01/09 11:01:01;;;;;;;66.72;33.53;;;;;;;3.53;58.91;93094.94;2048215;70;20143;-79
2024/01/09 11:03:27;;;;;;;65.63;34.75;;;;;;;4.32;59.18;93093.00;2048200;70;20146;-79
2024/01/09 11:05:58;;;;;;;51.67;28.20;;;;;;;5.04;56.03;93092.38;2047632;70;20261;-81
2024/01/09 11:08:26;;;;;;;50.92;26.48;;;;;;;5.29;54.41;93086.09;2048229;70;20158;-81
2024/01/09 11:10:53;;;;;;;56.03;27.50;;;;;;;6.24;54.47;93087.84;2048347;70;20238;-82
2024/01/09 11:13:22;;;;;;;53.05;27.75;;;;;;;8.84;51.33;93092.59;2048036;70;20270;-81
2024/01/09 11:15:54;;;;;;;53.17;27.80;;;;;;;9.50;50.34;93094.44;2048158;70;20143;-79